createdAt,value
2022-07-26T00:01:25.994Z,762.58
2022-07-26T00:04:01.182Z,768.17
2022-07-26T00:06:30.322Z,764.15
2022-07-26T00:08:58.775Z,766.40
2022-07-26T00:11:27.521Z,765.83
2022-07-26T00:13:56.163Z,754.72
2022-07-26T00:16:26.104Z,754.65
2022-07-26T00:18:54.785Z,765.55
2022-07-26T00:21:23.779Z,759.25
2022-07-26T00:23:52.411Z,761.25
2022-07-26T00:26:21.084Z,764.25
2022-07-26T00:28:49.757Z,762.70
2022-07-26T00:31:18.295Z,756.90
2022-07-26T00:33:48.546Z,763.33
2022-07-26T00:36:17.111Z,757.33
2022-07-26T00:38:45.564Z,759.10
2022-07-26T00:41:14.455Z,764.85
2022-07-26T00:43:55.811Z,753.50
2022-07-26T00:46:24.533Z,763.30
2022-07-26T00:48:54.586Z,759.15
2022-07-26T00:51:23.399Z,755.30
2022-07-26T00:53:52.421Z,760.88
2022-07-26T00:56:21.907Z,755.83
2022-07-26T00:58:50.347Z,763.15
2022-07-26T01:01:19.055Z,758.95
2022-07-26T01:03:51.939Z,760.20
2022-07-26T01:06:26.985Z,765.45
2022-07-26T01:08:56.211Z,754.15
2022-07-26T01:11:24.797Z,761.53
2022-07-26T01:13:53.727Z,762.17
2022-07-26T01:16:22.404Z,752.30
2022-07-26T01:18:51.096Z,755.40
2022-07-26T01:21:22.268Z,754.35
2022-07-26T01:23:52.514Z,757.65
2022-07-26T01:26:20.984Z,757.75
2022-07-26T01:28:54.402Z,755.70
2022-07-26T01:31:23.538Z,744.72
2022-07-26T01:33:52.506Z,760.40
2022-07-26T01:36:21.367Z,753.38
2022-07-26T01:38:51.372Z,755.42
2022-07-26T01:41:37.107Z,746.60
2022-07-26T01:44:07.903Z,753.20
2022-07-26T01:46:36.957Z,749.65
2022-07-26T01:49:07.351Z,745.17
2022-07-26T01:51:36.475Z,753.15
2022-07-26T01:54:07.389Z,754.25
2022-07-26T01:56:36.258Z,742.67
2022-07-26T01:59:05.290Z,747.35
2022-07-26T02:01:37.840Z,752.55
2022-07-26T02:04:08.984Z,748.17
2022-07-26T02:06:38.033Z,753.17
2022-07-26T02:09:12.610Z,749.30
2022-07-26T02:11:41.813Z,742.58
2022-07-26T02:14:10.719Z,747.33
2022-07-26T02:16:39.426Z,740.45
2022-07-26T02:19:08.042Z,750.55
2022-07-26T02:21:36.501Z,743.83
2022-07-26T02:24:05.727Z,739.85
2022-07-26T02:26:36.187Z,747.47
2022-07-26T02:29:04.712Z,742.92
2022-07-26T02:31:33.380Z,750.03
2022-07-26T02:34:02.001Z,742.85
2022-07-26T02:36:30.512Z,751.67
2022-07-26T02:38:59.150Z,751.70
2022-07-26T02:41:27.694Z,753.05
2022-07-26T02:43:57.599Z,749.25
2022-07-26T02:46:26.310Z,740.38
2022-07-26T02:48:55.041Z,741.20
2022-07-26T02:51:23.719Z,742.97
2022-07-26T02:53:52.195Z,743.85
2022-07-26T02:56:21.170Z,740.80
2022-07-26T02:58:49.652Z,743.42
2022-07-26T03:01:19.575Z,735.75
2022-07-26T03:03:51.007Z,751.88
2022-07-26T03:06:20.606Z,736.42
2022-07-26T03:08:49.927Z,735.42
2022-07-26T03:11:18.490Z,746.75
2022-07-26T03:13:46.940Z,734.88
2022-07-26T03:16:17.961Z,736.42
2022-07-26T03:18:51.925Z,747.75
2022-07-26T03:21:20.675Z,743.97
2022-07-26T03:23:49.147Z,739.40
2022-07-26T03:26:17.751Z,741.40
2022-07-26T03:28:46.470Z,739.72
2022-07-26T03:31:15.447Z,738.10
2022-07-26T03:33:44.173Z,733.80
2022-07-26T03:36:15.696Z,736.60
2022-07-26T03:38:44.831Z,735.35
2022-07-26T03:41:13.464Z,734.80
2022-07-26T03:43:42.537Z,740.08
2022-07-26T03:46:11.070Z,746.90
2022-07-26T03:48:39.758Z,743.88
2022-07-26T03:51:08.517Z,744.63
2022-07-26T03:53:38.413Z,735.80
2022-07-26T03:59:13.825Z,741.33
2022-07-26T04:04:52.812Z,729.38
2022-07-26T04:07:21.346Z,748.33
2022-07-26T04:09:51.511Z,746.85
2022-07-26T04:12:20.031Z,741.15
2022-07-26T04:14:48.494Z,740.95
2022-07-26T04:17:16.956Z,740.28
2022-07-26T04:19:45.497Z,734.88
2022-07-26T04:22:14.047Z,733.83
2022-07-26T04:24:42.498Z,739.38
2022-07-26T04:27:12.446Z,740.42
2022-07-26T04:29:40.960Z,733.25
2022-07-26T04:32:09.429Z,740.17
2022-07-26T04:34:37.988Z,727.63
2022-07-26T04:37:06.619Z,743.70
2022-07-26T04:39:35.070Z,738.90
2022-07-26T04:42:03.716Z,737.75
2022-07-26T04:44:33.551Z,740.50
2022-07-26T04:47:02.195Z,732.00
2022-07-26T04:49:30.854Z,726.40
2022-07-26T04:51:59.637Z,738.97
2022-07-26T04:54:28.274Z,738.35
2022-07-26T04:56:56.843Z,738.45
2022-07-26T04:59:25.559Z,736.33
2022-07-26T05:01:55.503Z,731.03
2022-07-26T05:04:24.605Z,735.58
2022-07-26T05:06:53.092Z,739.30
2022-07-26T05:09:21.898Z,733.38
2022-07-26T05:11:51.515Z,739.30
2022-07-26T05:14:19.980Z,729.35
2022-07-26T05:16:50.847Z,736.95
2022-07-26T05:19:20.743Z,738.83
2022-07-26T05:21:49.191Z,734.97
2022-07-26T05:24:17.681Z,734.05
2022-07-26T05:26:46.175Z,736.33
2022-07-26T05:29:14.662Z,736.78
2022-07-26T05:31:43.223Z,731.75
2022-07-26T05:34:11.900Z,733.08
2022-07-26T05:36:41.903Z,725.80
2022-07-26T05:39:15.796Z,729.97
2022-07-26T05:41:44.894Z,737.53
2022-07-26T05:44:13.471Z,738.25
2022-07-26T05:46:42.342Z,738.22
2022-07-26T05:49:11.192Z,725.38
2022-07-26T05:51:39.750Z,737.45
2022-07-26T05:54:10.264Z,741.00
2022-07-26T05:56:39.106Z,727.63
2022-07-26T05:59:08.070Z,739.35
2022-07-26T06:01:36.920Z,741.67
2022-07-26T06:04:05.973Z,735.90
2022-07-26T06:06:35.109Z,739.33
2022-07-26T06:09:03.605Z,749.25
2022-07-26T06:11:33.543Z,755.55
2022-07-26T06:14:02.051Z,757.40
2022-07-26T06:16:30.810Z,773.13
2022-07-26T06:18:59.281Z,785.50
2022-07-26T06:21:28.020Z,824.85
2022-07-26T06:23:56.908Z,824.33
2022-07-26T06:26:25.375Z,833.15
2022-07-26T06:28:55.525Z,864.60
2022-07-26T06:31:24.506Z,907.80
2022-07-26T06:33:53.248Z,921.75
2022-07-26T06:36:23.485Z,920.58
2022-07-26T06:38:55.090Z,927.75
2022-07-26T06:41:23.952Z,949.75
2022-07-26T06:43:52.857Z,962.72
2022-07-26T06:46:22.814Z,937.10
2022-07-26T06:48:52.951Z,944.55
2022-07-26T06:51:25.663Z,992.55
2022-07-26T06:53:54.354Z,944.38
2022-07-26T06:56:22.872Z,994.03
2022-07-26T06:58:52.686Z,992.30
2022-07-26T07:01:58.659Z,1008.25
2022-07-26T07:04:12.890Z,1006.88
2022-07-26T07:06:41.484Z,1021.95
2022-07-26T07:09:10.485Z,1022.95
2022-07-26T07:11:41.315Z,1033.10
2022-07-26T07:14:10.482Z,1040.03
2022-07-26T07:16:40.539Z,1040.68
2022-07-26T07:19:09.322Z,1024.65
2022-07-26T07:21:37.824Z,1029.90
2022-07-26T07:24:07.422Z,1062.00
2022-07-26T07:26:36.771Z,1067.18
2022-07-26T07:29:05.445Z,1068.88
2022-07-26T07:31:49.105Z,1063.85
2022-07-26T07:34:23.901Z,1068.50
2022-07-26T07:36:53.266Z,1080.55
2022-07-26T07:39:23.019Z,1094.65
2022-07-26T07:41:51.509Z,1086.90
2022-07-26T07:44:19.971Z,1091.50
2022-07-26T07:46:48.727Z,1094.05
2022-07-26T07:49:17.770Z,1106.20
2022-07-26T07:51:47.743Z,1102.68
2022-07-26T07:54:16.917Z,1081.97
2022-07-26T07:56:45.581Z,1095.05
2022-07-26T07:59:14.375Z,1097.32
2022-07-26T08:01:45.014Z,1124.85
2022-07-26T08:04:14.080Z,1120.60
2022-07-26T08:06:43.192Z,1131.53
2022-07-26T08:09:21.422Z,1132.57
2022-07-26T08:11:50.800Z,1138.00
2022-07-26T08:14:20.144Z,1120.28
2022-07-26T08:16:49.190Z,1130.93
2022-07-26T08:19:17.741Z,1146.00
2022-07-26T08:21:46.730Z,1126.68
2022-07-26T08:24:15.453Z,1149.80
2022-07-26T08:26:45.319Z,1156.78
2022-07-26T08:29:14.119Z,1156.57
2022-07-26T08:31:43.078Z,1149.45
2022-07-26T08:34:11.609Z,1156.20
2022-07-26T08:36:54.897Z,1160.70
2022-07-26T08:39:31.810Z,1173.50
2022-07-26T08:42:03.632Z,1166.35
2022-07-26T08:44:32.278Z,1169.85
2022-07-26T08:47:00.838Z,1149.85
2022-07-26T08:49:29.473Z,1156.68
2022-07-26T08:52:00.187Z,1160.40
2022-07-26T08:54:28.668Z,1165.22
2022-07-26T08:56:57.158Z,1168.65
2022-07-26T08:59:27.365Z,1176.43
2022-07-26T09:01:58.526Z,1163.43
2022-07-26T09:04:32.080Z,1152.25
2022-07-26T09:07:04.591Z,1165.00
2022-07-26T09:09:34.465Z,1169.63
2022-07-26T09:12:15.878Z,1166.35
2022-07-26T09:14:47.657Z,1176.60
2022-07-26T09:17:17.535Z,1177.03
2022-07-26T09:19:47.190Z,1172.38
2022-07-26T09:22:17.363Z,1158.63
2022-07-26T09:24:48.363Z,1147.45
2022-07-26T09:27:18.894Z,1165.57
2022-07-26T09:29:50.742Z,1160.43
2022-07-26T09:32:21.094Z,1154.20
2022-07-26T09:34:57.758Z,1163.97
2022-07-26T09:37:37.250Z,1138.18
2022-07-26T09:40:08.324Z,1165.10
2022-07-26T09:42:37.220Z,1158.07
2022-07-26T09:45:17.867Z,1169.50
2022-07-26T09:47:46.402Z,1175.53
2022-07-26T09:50:17.415Z,1161.82
2022-07-26T09:53:10.619Z,1190.75
2022-07-26T09:55:56.703Z,1179.03
2022-07-26T09:58:26.015Z,1162.07
2022-07-26T10:01:02.011Z,1182.63
2022-07-26T10:03:31.456Z,1177.88
2022-07-26T10:06:01.234Z,1170.38
2022-07-26T10:08:30.878Z,1179.68
2022-07-26T10:11:05.565Z,1179.68
2022-07-26T10:13:34.513Z,1178.40
2022-07-26T10:16:04.765Z,1177.90
2022-07-26T10:18:54.500Z,1183.18
2022-07-26T10:21:25.342Z,1174.75
2022-07-26T10:23:56.975Z,1181.50
2022-07-26T10:26:43.315Z,1157.25
2022-07-26T10:29:28.097Z,1174.68
2022-07-26T10:32:20.680Z,1170.68
2022-07-26T10:34:49.484Z,1153.18
2022-07-26T10:37:28.262Z,1162.30
2022-07-26T10:40:18.761Z,1180.45
2022-07-26T10:42:47.454Z,1178.45
2022-07-26T10:45:22.117Z,1185.97
2022-07-26T10:48:19.866Z,1177.38
2022-07-26T10:50:50.601Z,1195.68
2022-07-26T10:53:21.180Z,1167.32
2022-07-26T10:55:51.582Z,1181.47
2022-07-26T10:58:20.778Z,1176.25
2022-07-26T11:00:57.288Z,1179.07
2022-07-26T11:03:27.471Z,1184.35
2022-07-26T11:05:56.686Z,1191.25
2022-07-26T11:08:31.643Z,1192.40
2022-07-26T11:11:00.117Z,1196.82
2022-07-26T11:13:29.072Z,1173.22
2022-07-26T11:16:02.509Z,1186.82
2022-07-26T11:18:35.464Z,1182.25
2022-07-26T11:21:12.647Z,1173.60
2022-07-26T11:23:44.241Z,1185.80
2022-07-26T11:26:18.725Z,1184.80
2022-07-26T11:28:55.591Z,1184.35
2022-07-26T11:31:48.154Z,1183.78
2022-07-26T11:34:23.934Z,1187.35
2022-07-26T11:36:55.215Z,1182.90
2022-07-26T11:39:26.183Z,1179.13
2022-07-26T11:41:59.929Z,1154.18
2022-07-26T11:44:29.637Z,1169.75
2022-07-26T11:46:58.917Z,1172.75
2022-07-26T11:52:25.423Z,1154.82
2022-07-26T11:54:55.401Z,1157.80
2022-07-26T11:57:30.072Z,1144.50
2022-07-26T11:59:59.991Z,1141.18
2022-07-26T12:02:30.287Z,1120.90
2022-07-26T12:08:00.792Z,1090.78
2022-07-26T12:10:30.235Z,1110.32
2022-07-26T12:13:09.842Z,1104.30
2022-07-26T12:15:49.573Z,1096.43
2022-07-26T12:18:28.820Z,1096.05
2022-07-26T12:21:07.087Z,1065.32
2022-07-26T12:23:45.883Z,1077.40
2022-07-26T12:26:25.334Z,1077.07
2022-07-26T12:28:54.796Z,1072.75
2022-07-26T12:31:27.815Z,1064.28
2022-07-26T12:33:56.945Z,1067.25
2022-07-26T12:36:27.054Z,1055.40
2022-07-26T12:38:59.470Z,1074.68
2022-07-26T12:41:35.484Z,1055.47
2022-07-26T12:44:05.179Z,1069.93
2022-07-26T12:46:34.760Z,1081.35
2022-07-26T12:49:04.619Z,1068.38
2022-07-26T12:51:33.422Z,1038.38
2022-07-26T12:54:03.667Z,1074.20
2022-07-26T12:56:32.430Z,1064.80
2022-07-26T12:59:02.197Z,1033.47
2022-07-26T13:01:31.399Z,1030.20
2022-07-26T13:04:00.178Z,1032.15
2022-07-26T13:06:28.950Z,1035.28
2022-07-26T13:08:57.668Z,1053.03
2022-07-26T13:11:28.073Z,1058.22
2022-07-26T13:13:57.333Z,1053.65
2022-07-26T13:16:25.951Z,1024.97
2022-07-26T13:18:54.641Z,1054.50
2022-07-26T13:21:23.180Z,1027.88
2022-07-26T13:23:51.937Z,1023.83
2022-07-26T13:26:22.329Z,1023.67
2022-07-26T13:28:52.399Z,1043.13
2022-07-26T13:31:21.197Z,1035.30
2022-07-26T13:33:49.947Z,1032.82
2022-07-26T13:36:18.650Z,1036.57
2022-07-26T13:38:47.341Z,1046.03
2022-07-26T13:41:16.160Z,1017.03
2022-07-26T13:43:44.930Z,1027.20
2022-07-26T13:46:15.047Z,1033.57
2022-07-26T13:48:59.630Z,1005.40
2022-07-26T13:51:45.208Z,1002.05
2022-07-26T13:54:14.751Z,1005.58
2022-07-26T13:56:44.187Z,1029.30
2022-07-26T13:59:13.555Z,1037.60
2022-07-26T14:01:45.269Z,1034.47
2022-07-26T14:04:14.832Z,1020.13
2022-07-26T14:06:44.263Z,1027.43
2022-07-26T14:09:13.412Z,1023.13
2022-07-26T14:11:42.808Z,1033.75
2022-07-26T14:14:12.534Z,1029.90
2022-07-26T14:16:41.764Z,1006.83
2022-07-26T14:19:11.847Z,1027.72
2022-07-26T14:21:47.189Z,1030.68
2022-07-26T14:24:28.936Z,1034.43
2022-07-26T14:26:59.627Z,996.38
2022-07-26T14:29:28.817Z,1026.85
2022-07-26T14:31:57.578Z,1020.63
2022-07-26T14:34:27.668Z,1022.63
2022-07-26T14:36:56.465Z,995.45
2022-07-26T14:39:25.213Z,1021.35
2022-07-26T14:41:53.799Z,1012.78
2022-07-26T14:44:22.399Z,1019.88
2022-07-26T14:46:50.903Z,1005.17
2022-07-26T14:49:19.639Z,1008.83
2022-07-26T14:51:49.743Z,1015.08
2022-07-26T14:54:18.409Z,1002.28
2022-07-26T14:56:46.998Z,1001.60
2022-07-26T14:59:17.111Z,995.50
2022-07-26T15:01:45.785Z,1008.17
2022-07-26T15:04:14.721Z,1003.50
2022-07-26T15:06:43.668Z,1005.00
2022-07-26T15:09:13.677Z,1004.60
2022-07-26T15:11:42.633Z,962.38
2022-07-26T15:14:11.572Z,1008.83
2022-07-26T15:16:40.301Z,966.75
2022-07-26T15:19:08.885Z,990.35
2022-07-26T15:21:37.466Z,990.92
2022-07-26T15:24:06.361Z,1001.17
2022-07-26T15:26:36.277Z,1003.60
2022-07-26T15:29:04.832Z,997.70
2022-07-26T15:31:36.886Z,985.15
2022-07-26T15:34:09.869Z,1000.10
2022-07-26T15:36:38.782Z,988.53
2022-07-26T15:39:17.095Z,991.03
2022-07-26T15:41:51.822Z,993.30
2022-07-26T15:44:22.966Z,991.40
2022-07-26T15:46:54.502Z,991.13
2022-07-26T15:49:23.807Z,996.92
2022-07-26T15:51:52.356Z,985.38
2022-07-26T15:54:21.141Z,985.55
2022-07-26T15:56:51.402Z,974.25
2022-07-26T15:59:19.998Z,970.47
2022-07-26T16:01:48.670Z,985.25
2022-07-26T16:04:17.448Z,943.53
2022-07-26T16:06:46.196Z,946.03
2022-07-26T16:09:17.645Z,967.65
2022-07-26T16:11:47.803Z,943.38
2022-07-26T16:14:18.664Z,976.13
2022-07-26T16:16:47.506Z,979.13
2022-07-26T16:19:16.365Z,982.08
2022-07-26T16:21:45.237Z,969.35
2022-07-26T16:24:13.955Z,955.60
2022-07-26T16:26:44.841Z,980.30
2022-07-26T16:29:17.539Z,983.20
2022-07-26T16:31:46.194Z,973.60
2022-07-26T16:34:14.824Z,944.10
2022-07-26T16:36:43.547Z,962.60
2022-07-26T16:39:12.494Z,960.08
2022-07-26T16:41:41.181Z,969.55
2022-07-26T16:44:09.728Z,963.42
2022-07-26T16:46:40.039Z,931.40
2022-07-26T16:49:09.215Z,968.70
2022-07-26T16:51:38.114Z,951.78
2022-07-26T16:54:06.969Z,931.38
2022-07-26T16:56:35.571Z,946.58
2022-07-26T17:01:40.434Z,963.53
2022-07-26T17:04:09.341Z,957.17
2022-07-26T17:06:37.963Z,940.13
2022-07-26T17:09:07.326Z,941.13
2022-07-26T17:11:44.177Z,933.88
2022-07-26T17:14:16.206Z,931.47
2022-07-26T17:16:46.271Z,934.65
2022-07-26T17:19:15.706Z,936.75
2022-07-26T17:21:44.305Z,940.78
2022-07-26T17:24:12.965Z,933.72
2022-07-26T17:26:41.431Z,931.45
2022-07-26T17:29:11.325Z,917.83
2022-07-26T17:31:40.174Z,907.83
2022-07-26T17:34:10.066Z,923.45
2022-07-26T17:36:38.655Z,889.10
2022-07-26T17:39:07.196Z,926.35
2022-07-26T17:41:36.585Z,953.47
2022-07-26T17:44:09.765Z,968.13
2022-07-26T17:46:38.299Z,907.35
2022-07-26T17:49:07.586Z,921.95
2022-07-26T17:51:38.048Z,907.17
2022-07-26T17:54:07.009Z,899.05
2022-07-26T17:56:35.754Z,951.20
2022-07-26T17:59:04.747Z,923.60
2022-07-26T18:01:33.345Z,928.85
2022-07-26T18:04:01.881Z,959.40
2022-07-26T18:06:30.465Z,943.63
2022-07-26T18:09:00.326Z,910.45
2022-07-26T18:11:28.767Z,920.38
2022-07-26T18:13:57.302Z,938.78
2022-07-26T18:16:27.167Z,994.80
2022-07-26T18:18:55.939Z,940.05
2022-07-26T18:21:24.546Z,899.92
2022-07-26T18:24:15.320Z,864.30
2022-07-26T18:26:43.058Z,862.80
2022-07-26T18:29:12.039Z,890.72
2022-07-26T18:31:40.773Z,865.17
2022-07-26T18:34:09.434Z,906.00
2022-07-26T18:36:38.018Z,905.17
2022-07-26T18:39:06.794Z,897.38
2022-07-26T18:41:35.442Z,890.97
2022-07-26T18:44:05.441Z,870.40
2022-07-26T18:46:34.012Z,898.53
2022-07-26T18:49:02.775Z,883.78
2022-07-26T18:51:31.845Z,898.95
2022-07-26T18:54:00.408Z,900.13
2022-07-26T18:56:29.078Z,895.17
2022-07-26T18:58:58.130Z,884.78
2022-07-26T19:01:27.998Z,892.45
2022-07-26T19:03:56.696Z,901.15
2022-07-26T19:06:25.255Z,880.15
2022-07-26T19:08:53.729Z,852.58
2022-07-26T19:11:22.323Z,892.78
2022-07-26T19:13:50.830Z,886.88
2022-07-26T19:16:19.446Z,895.88
2022-07-26T19:18:53.796Z,910.30
2022-07-26T19:21:25.933Z,881.67
2022-07-26T19:23:54.694Z,879.67
2022-07-26T19:26:23.962Z,871.38
2022-07-26T19:28:52.514Z,884.03
2022-07-26T19:31:21.191Z,879.63
2022-07-26T19:33:51.215Z,860.53
2022-07-26T19:36:25.584Z,852.10
2022-07-26T19:38:56.858Z,825.25
2022-07-26T19:41:25.966Z,861.72
2022-07-26T19:43:54.414Z,851.63
2022-07-26T19:46:23.159Z,854.65
2022-07-26T19:48:55.351Z,817.63
2022-07-26T19:51:23.957Z,854.45
2022-07-26T19:53:52.441Z,864.97
2022-07-26T19:56:20.969Z,807.25
2022-07-26T19:58:50.083Z,832.45
2022-07-26T20:01:18.627Z,853.25
2022-07-26T20:03:47.139Z,818.70
2022-07-26T20:06:17.163Z,842.08
2022-07-26T20:08:47.565Z,833.20
2022-07-26T20:11:16.463Z,841.30
2022-07-26T20:13:44.997Z,824.45
2022-07-26T20:16:13.567Z,812.10
2022-07-26T20:18:42.040Z,793.90
2022-07-26T20:21:10.882Z,785.05
2022-07-26T20:23:41.115Z,810.60
2022-07-26T20:26:09.608Z,826.67
2022-07-26T20:28:38.461Z,823.38
2022-07-26T20:31:07.023Z,847.83
2022-07-26T20:33:35.524Z,891.70
2022-07-26T20:36:04.123Z,768.92
2022-07-26T20:38:32.617Z,810.88
2022-07-26T20:41:02.466Z,808.00
2022-07-26T20:43:33.774Z,820.10
2022-07-26T20:46:03.347Z,804.00
2022-07-26T20:48:32.029Z,788.00
2022-07-26T20:51:01.122Z,839.45
2022-07-26T20:53:29.723Z,874.00
2022-07-26T20:55:58.206Z,831.28
2022-07-26T20:58:28.277Z,772.88
2022-07-26T21:00:56.828Z,845.65
2022-07-26T21:03:25.365Z,920.78
2022-07-26T21:05:53.938Z,931.75
2022-07-26T21:08:22.711Z,805.28
2022-07-26T21:10:51.227Z,774.03
2022-07-26T21:13:19.807Z,772.55
2022-07-26T21:15:51.401Z,776.63
2022-07-26T21:18:19.942Z,774.58
2022-07-26T21:20:48.673Z,772.97
2022-07-26T21:23:19.067Z,780.15
2022-07-26T21:25:48.761Z,779.25
2022-07-26T21:28:26.438Z,774.80
2022-07-26T21:30:56.957Z,761.83
2022-07-26T21:33:25.499Z,773.83
2022-07-26T21:35:53.994Z,766.97
2022-07-26T21:38:22.637Z,774.28
2022-07-26T21:40:51.591Z,765.55
2022-07-26T21:43:20.929Z,766.72
2022-07-26T21:45:49.489Z,772.42
2022-07-26T21:48:19.390Z,774.00
2022-07-26T21:50:47.849Z,762.80
2022-07-26T21:53:16.424Z,775.40
2022-07-26T21:55:44.957Z,773.65
2022-07-26T21:58:13.529Z,777.72
2022-07-26T22:00:42.556Z,760.55
2022-07-26T22:03:11.948Z,758.60
2022-07-26T22:05:43.441Z,765.92
2022-07-26T22:08:13.997Z,770.40
2022-07-26T22:10:45.131Z,769.40
2022-07-26T22:13:16.874Z,774.72
2022-07-26T22:15:46.253Z,754.55
2022-07-26T22:18:15.162Z,765.22
2022-07-26T22:20:47.645Z,770.38
2022-07-26T22:23:17.587Z,753.95
2022-07-26T22:25:47.144Z,760.95
2022-07-26T22:28:18.483Z,749.03
2022-07-26T22:30:47.469Z,760.95
2022-07-26T22:33:17.060Z,765.60
2022-07-26T22:35:47.117Z,751.55
2022-07-26T22:38:16.643Z,753.30
2022-07-26T22:40:45.606Z,764.72
2022-07-26T22:43:15.103Z,759.90
2022-07-26T22:45:44.153Z,766.05
2022-07-26T22:48:13.629Z,762.17
2022-07-26T22:50:42.352Z,760.63
2022-07-26T22:53:12.367Z,765.10
2022-07-26T22:55:41.134Z,757.15
2022-07-26T22:58:09.958Z,755.85
2022-07-26T23:00:38.572Z,759.53
2022-07-26T23:03:13.936Z,760.58
2022-07-26T23:05:50.462Z,749.35
2022-07-26T23:08:47.166Z,747.40
2022-07-26T23:11:10.753Z,744.10
2022-07-26T23:13:39.437Z,745.95
2022-07-26T23:16:08.752Z,750.67
2022-07-26T23:18:38.213Z,748.00
2022-07-26T23:21:06.847Z,756.75
2022-07-26T23:23:37.107Z,747.67
2022-07-26T23:26:05.726Z,746.53
2022-07-26T23:28:37.133Z,756.17
2022-07-26T23:31:09.381Z,753.92
2022-07-26T23:33:52.775Z,751.03
2022-07-26T23:36:27.701Z,751.97
2022-07-26T23:38:59.126Z,750.53
2022-07-26T23:41:28.379Z,748.38
2022-07-26T23:43:57.251Z,753.78
2022-07-26T23:46:26.631Z,752.00
2022-07-26T23:48:55.926Z,748.47
2022-07-26T23:51:24.504Z,754.53
2022-07-26T23:53:53.492Z,736.95
2022-07-26T23:56:23.610Z,731.28
2022-07-26T23:58:52.595Z,745.58
